Time;durP1;ratioP1;P1;durP2;ratioP2;P2;SDS_P1;SDS_P2;PMS_P1;PMS_P2;Temp;Humidity;BMP_temperature;BMP_pressure;BME280_temperature;BME280_humidity;BME280_pressure;Samples;Min_cycle;Max_cycle;Signal;HPM_P1;HPM_P2
2024/04/19 00:00:42;;;;;;;4.50;3.03;;;;;;;;;;5396997;26;20239;-71
2024/04/19 00:03:07;;;;;;;7.63;3.47;;;;;;;;;;5396098;26;20281;-70
2024/04/19 00:05:32;;;;;;;7.83;3.00;;;;;;;;;;5404718;26;20744;-71
2024/04/19 00:07:57;;;;;;;8.80;3.37;;;;;;;;;;5396567;26;20262;-70
2024/04/19 00:10:23;;;;;;;5.83;3.73;;;;;;;;;;5404478;26;20247;-70
2024/04/19 00:12:48;;;;;;;6.57;3.50;;;;;;;;;;5403467;26;20242;-71
2024/04/19 00:15:13;;;;;;;8.07;3.67;;;;;;;;;;5402388;26;20312;-71
2024/04/19 00:17:38;;;;;;;6.73;3.33;;;;;;;;;;5412818;26;20667;-70
2024/04/19 00:20:03;;;;;;;4.63;2.97;;;;;;;;;;5408530;26;20242;-70
2024/04/19 00:22:29;;;;;;;6.53;3.53;;;;;;;;;;5401091;26;20231;-70
2024/04/19 00:24:54;;;;;;;4.70;3.00;;;;;;;;;;5401681;26;20631;-70
2024/04/19 00:27:19;;;;;;;6.70;2.93;;;;;;;;;;5418571;26;20234;-71
2024/04/19 00:29:44;;;;;;;4.20;2.50;;;;;;;;;;5406903;26;20753;-70
2024/04/19 00:32:10;;;;;;;8.97;3.10;;;;;;;;;;5416287;26;20235;-70
2024/04/19 00:34:35;;;;;;;6.07;2.80;;;;;;;;;;5402734;26;20740;-71
2024/04/19 00:37:00;;;;;;;5.00;2.20;;;;;;;;;;5406962;26;20227;-71
2024/04/19 00:39:25;;;;;;;6.13;2.27;;;;;;;;;;5409424;26;20239;-71
2024/04/19 00:41:51;;;;;;;3.43;2.00;;;;;;;;;;5410051;26;20302;-71
2024/04/19 00:44:16;;;;;;;6.67;3.17;;;;;;;;;;5408747;26;20713;-72
2024/04/19 00:46:42;;;;;;;8.93;2.87;;;;;;;;;;5415836;26;20243;-71
2024/04/19 00:49:08;;;;;;;3.73;2.17;;;;;;;;;;5409683;26;20238;-72
2024/04/19 00:51:33;;;;;;;4.93;1.80;;;;;;;;;;5414505;26;20264;-71
2024/04/19 00:53:58;;;;;;;4.67;1.57;;;;;;;;;;5409039;26;20526;-72
2024/04/19 00:56:24;;;;;;;2.13;1.83;;;;;;;;;;5395963;26;20767;-72
2024/04/19 00:58:49;;;;;;;6.93;2.03;;;;;;;;;;5412631;26;20282;-70
2024/04/19 01:01:14;;;;;;;4.87;1.70;;;;;;;;;;5409626;26;20339;-71
2024/04/19 01:03:40;;;;;;;6.27;2.00;;;;;;;;;;5410751;26;20235;-71
2024/04/19 01:06:05;;;;;;;5.00;2.10;;;;;;;;;;5412889;26;20242;-71
2024/04/19 01:08:31;;;;;;;6.10;2.60;;;;;;;;;;5418302;26;20235;-72
2024/04/19 01:10:56;;;;;;;4.37;2.60;;;;;;;;;;5406299;26;20299;-71
2024/04/19 01:13:22;;;;;;;3.70;2.43;;;;;;;;;;5408537;26;20246;-71
2024/04/19 01:15:47;;;;;;;4.87;2.27;;;;;;;;;;5404327;26;20366;-71
2024/04/19 01:18:13;;;;;;;7.30;2.50;;;;;;;;;;5414194;26;20242;-71
2024/04/19 01:20:38;;;;;;;13.77;2.37;;;;;;;;;;5408887;26;20230;-71
2024/04/19 01:23:04;;;;;;;7.77;1.90;;;;;;;;;;5407000;26;20343;-71
2024/04/19 01:25:38;;;;;;;5.90;2.00;;;;;;;;;;5417984;26;20867;-72
2024/04/19 01:28:08;;;;;;;8.30;2.20;;;;;;;;;;5417212;26;20238;-70
2024/04/19 01:30:33;;;;;;;4.77;2.50;;;;;;;;;;5422255;26;20264;-70
2024/04/19 01:32:59;;;;;;;5.27;2.13;;;;;;;;;;5413654;26;20239;-70
2024/04/19 01:35:24;;;;;;;3.40;2.00;;;;;;;;;;5408663;26;20752;-70
2024/04/19 01:37:49;;;;;;;4.07;2.07;;;;;;;;;;5413070;26;20236;-70
2024/04/19 01:40:14;;;;;;;6.23;2.53;;;;;;;;;;5415186;26;20289;-70
2024/04/19 01:42:40;;;;;;;4.10;2.17;;;;;;;;;;5411248;26;20246;-70
2024/04/19 01:45:05;;;;;;;3.50;2.17;;;;;;;;;;5412487;26;20242;-70
2024/04/19 01:47:30;;;;;;;4.77;2.30;;;;;;;;;;5418213;26;20231;-71
2024/04/19 01:49:56;;;;;;;5.27;2.70;;;;;;;;;;5418146;26;20351;-71
2024/04/19 01:52:21;;;;;;;6.70;2.37;;;;;;;;;;5404741;26;20236;-71
2024/04/19 01:54:46;;;;;;;5.33;2.37;;;;;;;;;;5416559;26;20859;-71
2024/04/19 01:57:11;;;;;;;4.47;2.57;;;;;;;;;;5411894;26;20230;-70
2024/04/19 01:59:37;;;;;;;7.30;2.57;;;;;;;;;;5419299;26;20285;-71
2024/04/19 02:02:02;;;;;;;4.70;2.50;;;;;;;;;;5418112;26;20230;-72
2024/04/19 02:04:27;;;;;;;3.73;2.30;;;;;;;;;;5421629;26;20625;-71
2024/04/19 02:06:52;;;;;;;5.20;2.17;;;;;;;;;;5416650;26;20265;-72
2024/04/19 02:09:18;;;;;;;4.30;2.67;;;;;;;;;;5420701;26;20242;-71
2024/04/19 02:11:43;;;;;;;3.80;1.93;;;;;;;;;;5406527;26;20583;-71
2024/04/19 02:14:08;;;;;;;5.23;3.40;;;;;;;;;;5420599;26;20316;-71
2024/04/19 02:16:33;;;;;;;5.87;3.03;;;;;;;;;;5410584;26;20242;-71
2024/04/19 02:18:58;;;;;;;4.53;3.70;;;;;;;;;;5407449;26;20232;-71
2024/04/19 02:21:27;;;;;;;3.70;2.60;;;;;;;;;;5415350;26;20293;-71
2024/04/19 02:23:53;;;;;;;4.23;3.17;;;;;;;;;;5410611;26;20293;-71
2024/04/19 02:26:18;;;;;;;7.73;3.63;;;;;;;;;;5420414;26;20687;-71
2024/04/19 02:31:27;;;;;;;5.63;3.00;;;;;;;;;;5417592;26;20311;-71
2024/04/19 02:33:52;;;;;;;7.37;3.30;;;;;;;;;;5416232;26;20579;-70
2024/04/19 02:36:17;;;;;;;6.50;3.00;;;;;;;;;;5419042;26;20238;-71
2024/04/19 02:38:43;;;;;;;5.10;3.00;;;;;;;;;;5421305;26;20327;-71
2024/04/19 02:41:08;;;;;;;5.27;2.90;;;;;;;;;;5421390;26;20235;-70
2024/04/19 02:43:33;;;;;;;3.77;2.80;;;;;;;;;;5413352;26;20257;-70
2024/04/19 02:46:03;;;;;;;3.87;2.70;;;;;;;;;;5415535;26;20660;-70
2024/04/19 02:48:28;;;;;;;3.97;2.57;;;;;;;;;;5411174;26;20636;-70
2024/04/19 02:50:53;;;;;;;3.97;3.10;;;;;;;;;;5418011;26;20239;-71
2024/04/19 02:53:18;;;;;;;4.60;3.10;;;;;;;;;;5414888;26;20283;-71
2024/04/19 02:55:44;;;;;;;7.00;3.20;;;;;;;;;;5417383;26;20238;-70
2024/04/19 02:58:09;;;;;;;3.43;3.10;;;;;;;;;;5418769;26;20242;-71
2024/04/19 03:00:34;;;;;;;10.40;3.57;;;;;;;;;;5417132;26;20239;-71
2024/04/19 03:02:59;;;;;;;8.80;3.57;;;;;;;;;;5427237;26;20298;-70
2024/04/19 03:05:25;;;;;;;4.73;3.10;;;;;;;;;;5399275;26;20831;-70
2024/04/19 03:07:50;;;;;;;4.73;3.07;;;;;;;;;;5417087;26;20717;-71
2024/04/19 03:10:15;;;;;;;3.67;3.20;;;;;;;;;;5419944;26;20294;-71
2024/04/19 03:12:40;;;;;;;6.47;3.13;;;;;;;;;;5421431;26;20238;-71
2024/04/19 03:15:07;;;;;;;5.80;3.10;;;;;;;;;;5405800;26;20342;-71
2024/04/19 03:17:32;;;;;;;6.77;3.53;;;;;;;;;;5422810;26;20277;-72
2024/04/19 03:19:57;;;;;;;5.87;4.20;;;;;;;;;;5412254;26;20234;-71
2024/04/19 03:22:23;;;;;;;4.83;3.70;;;;;;;;;;5419028;26;20344;-71
2024/04/19 03:24:48;;;;;;;4.90;3.57;;;;;;;;;;5436247;21;20251;-72
2024/04/19 03:27:13;;;;;;;5.93;3.40;;;;;;;;;;5410299;26;20932;-71
2024/04/19 03:29:38;;;;;;;7.17;3.80;;;;;;;;;;5417164;26;20317;-71
2024/04/19 03:32:04;;;;;;;4.73;3.87;;;;;;;;;;5400845;26;20733;-71
2024/04/19 03:34:29;;;;;;;4.33;3.77;;;;;;;;;;5404692;26;20242;-72
2024/04/19 03:36:54;;;;;;;5.10;4.00;;;;;;;;;;5401976;26;20676;-72
2024/04/19 03:39:19;;;;;;;4.20;2.97;;;;;;;;;;5408563;26;20718;-72
2024/04/19 03:41:46;;;;;;;3.70;3.30;;;;;;;;;;5409059;26;20281;-72
2024/04/19 03:46:56;;;;;;;4.30;3.60;;;;;;;;;;5409891;26;20291;-72
2024/04/19 03:49:21;;;;;;;4.67;3.73;;;;;;;;;;5406667;26;20231;-72
2024/04/19 03:51:46;;;;;;;4.97;4.30;;;;;;;;;;5410241;26;20327;-72
2024/04/19 03:54:11;;;;;;;6.80;4.80;;;;;;;;;;5405220;26;20250;-73
2024/04/19 03:56:37;;;;;;;5.63;4.63;;;;;;;;;;5400925;26;20846;-72
2024/04/19 03:59:02;;;;;;;6.53;4.47;;;;;;;;;;5401236;26;20235;-72
2024/04/19 04:01:27;;;;;;;7.90;5.10;;;;;;;;;;5398234;26;20638;-73
2024/04/19 04:03:53;;;;;;;6.33;5.37;;;;;;;;;;5401911;26;20319;-71
2024/04/19 04:06:18;;;;;;;6.43;5.43;;;;;;;;;;5405376;26;20764;-72
2024/04/19 04:08:45;;;;;;;7.73;6.13;;;;;;;;;;5406086;26;20285;-72
2024/04/19 04:11:12;;;;;;;10.33;5.70;;;;;;;;;;5406111;26;20228;-72
2024/04/19 04:13:40;;;;;;;10.43;6.17;;;;;;;;;;5408625;26;22171;-72
2024/04/19 04:16:06;;;;;;;8.97;6.20;;;;;;;;;;5401361;26;20238;-71
2024/04/19 04:18:32;;;;;;;11.13;6.33;;;;;;;;;;5403178;26;20269;-71
2024/04/19 04:20:57;;;;;;;9.13;6.53;;;;;;;;;;5404017;26;20281;-71
2024/04/19 04:23:22;;;;;;;12.77;6.63;;;;;;;;;;5438226;26;20246;-73
2024/04/19 04:25:47;;;;;;;9.53;6.97;;;;;;;;;;5403378;26;20691;-72
2024/04/19 04:28:13;;;;;;;10.63;5.90;;;;;;;;;;5408138;26;20238;-72
2024/04/19 04:30:38;;;;;;;12.00;6.53;;;;;;;;;;5392223;26;20325;-73
2024/04/19 04:33:03;;;;;;;11.07;6.57;;;;;;;;;;5434435;26;20243;-72
2024/04/19 04:35:29;;;;;;;9.60;7.10;;;;;;;;;;5408731;26;20733;-74
2024/04/19 04:37:54;;;;;;;15.70;6.43;;;;;;;;;;5398505;26;20331;-72
2024/04/19 04:40:19;;;;;;;12.10;6.80;;;;;;;;;;5406031;26;20281;-73
2024/04/19 04:42:44;;;;;;;16.07;6.93;;;;;;;;;;5424795;26;20320;-72
2024/04/19 04:45:09;;;;;;;14.80;6.73;;;;;;;;;;5397230;26;20230;-72
2024/04/19 04:47:35;;;;;;;11.20;6.90;;;;;;;;;;5393721;26;20773;-72
2024/04/19 04:50:00;;;;;;;17.20;7.73;;;;;;;;;;5402655;26;20238;-73
2024/04/19 04:52:27;;;;;;;16.97;6.67;;;;;;;;;;5403042;26;20258;-72
2024/04/19 04:54:52;;;;;;;16.37;7.33;;;;;;;;;;5401897;26;20273;-74
2024/04/19 04:57:17;;;;;;;21.87;8.33;;;;;;;;;;5433164;26;20231;-72
2024/04/19 04:59:42;;;;;;;17.57;7.73;;;;;;;;;;5402097;26;20231;-72
2024/04/19 05:02:07;;;;;;;14.63;6.80;;;;;;;;;;5435460;26;20276;-73
2024/04/19 05:04:33;;;;;;;16.83;6.90;;;;;;;;;;5405880;26;20227;-72
2024/04/19 05:06:58;;;;;;;13.37;6.97;;;;;;;;;;5404099;26;20238;-72
2024/04/19 05:09:23;;;;;;;13.33;7.33;;;;;;;;;;5394726;26;20293;-74
2024/04/19 05:11:48;;;;;;;12.33;6.30;;;;;;;;;;5403500;26;20239;-73
2024/04/19 05:14:13;;;;;;;15.27;6.43;;;;;;;;;;5410816;26;20277;-72
2024/04/19 05:16:40;;;;;;;12.23;6.43;;;;;;;;;;5396978;26;20238;-73
2024/04/19 05:19:05;;;;;;;15.10;6.83;;;;;;;;;;5401750;26;20297;-71
2024/04/19 05:21:31;;;;;;;9.80;6.23;;;;;;;;;;5402144;26;20243;-70
2024/04/19 05:23:56;;;;;;;13.53;6.03;;;;;;;;;;5408033;26;20238;-71
2024/04/19 05:26:21;;;;;;;13.07;6.60;;;;;;;;;;5405878;26;20334;-71
2024/04/19 05:28:46;;;;;;;12.77;5.83;;;;;;;;;;5390275;26;20227;-73
2024/04/19 05:31:12;;;;;;;14.50;5.90;;;;;;;;;;5400348;26;20881;-71
2024/04/19 05:33:37;;;;;;;18.00;5.30;;;;;;;;;;5413416;26;20231;-71
2024/04/19 05:36:02;;;;;;;14.40;5.83;;;;;;;;;;5418101;26;20235;-71
2024/04/19 05:38:27;;;;;;;12.20;5.70;;;;;;;;;;5415977;26;20230;-72
2024/04/19 05:40:52;;;;;;;20.73;5.80;;;;;;;;;;5409974;26;20231;-71
2024/04/19 05:43:18;;;;;;;12.93;5.70;;;;;;;;;;5408382;26;20280;-71
2024/04/19 05:45:43;;;;;;;16.63;6.23;;;;;;;;;;5414192;26;20581;-71
2024/04/19 05:48:08;;;;;;;18.03;6.07;;;;;;;;;;5410303;26;20242;-71
2024/04/19 05:50:33;;;;;;;13.00;6.30;;;;;;;;;;5401921;26;20236;-72
2024/04/19 05:52:59;;;;;;;22.37;6.43;;;;;;;;;;5417087;26;20783;-72
2024/04/19 05:55:24;;;;;;;12.20;4.70;;;;;;;;;;5409999;26;20246;-71
2024/04/19 05:57:49;;;;;;;26.43;6.50;;;;;;;;;;5408699;26;20241;-72
2024/04/19 06:00:14;;;;;;;20.80;6.80;;;;;;;;;;5404575;26;20277;-72
2024/04/19 06:02:40;;;;;;;9.07;5.33;;;;;;;;;;5399216;26;20236;-72
2024/04/19 06:05:05;;;;;;;14.97;4.57;;;;;;;;;;5408099;26;20242;-72
2024/04/19 06:07:30;;;;;;;12.53;4.63;;;;;;;;;;5430137;26;20329;-72
2024/04/19 06:09:55;;;;;;;7.63;3.53;;;;;;;;;;5416236;26;20361;-72
2024/04/19 06:12:21;;;;;;;22.70;4.43;;;;;;;;;;5404451;26;20227;-72
2024/04/19 06:14:46;;;;;;;8.27;3.30;;;;;;;;;;5419441;26;20337;-73
2024/04/19 06:17:11;;;;;;;8.60;3.97;;;;;;;;;;5408943;26;20796;-72
2024/04/19 06:19:36;;;;;;;7.93;3.40;;;;;;;;;;5408311;26;20278;-72
2024/04/19 06:22:01;;;;;;;15.30;4.00;;;;;;;;;;5396684;26;20271;-72
2024/04/19 06:24:27;;;;;;;11.17;3.63;;;;;;;;;;5407593;26;20255;-72
2024/04/19 06:26:52;;;;;;;14.33;4.10;;;;;;;;;;5418930;26;20242;-73
2024/04/19 06:29:17;;;;;;;10.53;3.77;;;;;;;;;;5418324;26;20301;-73
2024/04/19 06:31:44;;;;;;;12.57;4.40;;;;;;;;;;5403236;26;20794;-73
2024/04/19 06:34:09;;;;;;;15.47;4.40;;;;;;;;;;5412836;26;20301;-74
2024/04/19 06:36:34;;;;;;;17.07;4.77;;;;;;;;;;5412834;26;20285;-73
2024/04/19 06:39:00;;;;;;;16.90;4.13;;;;;;;;;;5416929;26;20597;-73
2024/04/19 06:41:25;;;;;;;8.23;3.00;;;;;;;;;;5396686;26;20235;-73
2024/04/19 06:43:50;;;;;;;15.30;4.00;;;;;;;;;;5394672;26;20257;-73
2024/04/19 06:46:17;;;;;;;13.20;3.23;;;;;;;;;;5402117;26;20237;-73
2024/04/19 06:48:42;;;;;;;13.67;4.20;;;;;;;;;;5405235;26;20293;-73
2024/04/19 06:51:07;;;;;;;7.07;3.30;;;;;;;;;;5403973;26;21152;-73
2024/04/19 06:53:32;;;;;;;14.90;3.97;;;;;;;;;;5387595;26;20247;-73
2024/04/19 06:55:57;;;;;;;9.60;3.97;;;;;;;;;;5409497;26;20235;-73
2024/04/19 06:58:23;;;;;;;19.03;3.70;;;;;;;;;;5385701;26;20254;-73
2024/04/19 07:00:49;;;;;;;8.70;2.40;;;;;;;;;;5379740;26;20273;-73
2024/04/19 07:03:15;;;;;;;7.90;2.63;;;;;;;;;;5385707;26;20254;-73
2024/04/19 07:05:40;;;;;;;7.03;2.70;;;;;;;;;;5385112;26;20235;-71
2024/04/19 07:08:05;;;;;;;10.17;3.60;;;;;;;;;;5383007;26;20773;-74
2024/04/19 07:10:30;;;;;;;6.13;2.83;;;;;;;;;;5384760;26;21061;-71
2024/04/19 07:12:56;;;;;;;5.90;3.17;;;;;;;;;;5386773;26;20807;-72
2024/04/19 07:15:21;;;;;;;7.17;2.63;;;;;;;;;;5396923;26;20337;-72
2024/04/19 07:17:49;;;;;;;15.17;3.37;;;;;;;;;;5390125;26;20568;-72
2024/04/19 07:20:14;;;;;;;6.53;2.83;;;;;;;;;;5382031;26;20278;-71
2024/04/19 07:22:39;;;;;;;9.20;3.00;;;;;;;;;;5388497;26;20234;-72
2024/04/19 07:25:04;;;;;;;9.90;3.43;;;;;;;;;;5388011;26;20247;-71
2024/04/19 07:27:30;;;;;;;13.10;3.40;;;;;;;;;;5382387;26;22572;-72
2024/04/19 07:29:56;;;;;;;13.40;3.30;;;;;;;;;;5383885;26;20239;-72
2024/04/19 07:32:21;;;;;;;8.30;2.87;;;;;;;;;;5383608;26;20584;-72
2024/04/19 07:34:46;;;;;;;12.73;3.97;;;;;;;;;;5385130;26;20367;-71
2024/04/19 07:37:12;;;;;;;5.50;3.13;;;;;;;;;;5434043;26;20752;-70
2024/04/19 07:39:37;;;;;;;7.13;3.00;;;;;;;;;;5408112;26;20734;-73
2024/04/19 07:42:02;;;;;;;5.27;2.53;;;;;;;;;;5405274;26;20757;-72
2024/04/19 07:44:27;;;;;;;11.55;3.30;;;;;;;;;;5410103;26;20246;-73
2024/04/19 07:46:53;;;;;;;9.00;4.00;;;;;;;;;;5405877;26;20286;-72
2024/04/19 07:49:18;;;;;;;13.90;2.50;;;;;;;;;;5417715;26;20637;-72
2024/04/19 07:51:43;;;;;;;12.55;2.30;;;;;;;;;;5391932;26;20493;-72
2024/04/19 07:54:08;;;;;;;9.27;2.50;;;;;;;;;;5385666;26;20639;-70
2024/04/19 07:56:34;;;;;;;10.43;3.30;;;;;;;;;;5385625;26;20674;-70
2024/04/19 07:58:59;;;;;;;9.37;2.33;;;;;;;;;;5410026;26;20614;-70
2024/04/19 08:01:24;;;;;;;11.87;2.67;;;;;;;;;;5387552;26;20259;-70
2024/04/19 08:03:50;;;;;;;7.53;2.23;;;;;;;;;;5385627;26;20342;-71
2024/04/19 08:06:15;;;;;;;11.23;2.53;;;;;;;;;;5387363;26;20243;-70
2024/04/19 08:08:40;;;;;;;7.33;2.20;;;;;;;;;;5386528;26;20793;-71
2024/04/19 08:11:06;;;;;;;7.00;2.00;;;;;;;;;;5387189;26;20291;-71
2024/04/19 08:13:31;;;;;;;9.77;2.67;;;;;;;;;;5385596;26;20254;-71
2024/04/19 08:15:57;;;;;;;7.90;1.83;;;;;;;;;;5385967;26;20290;-70
2024/04/19 08:18:22;;;;;;;13.80;2.83;;;;;;;;;;5385624;26;20242;-71
2024/04/19 08:20:47;;;;;;;6.30;2.83;;;;;;;;;;5413110;26;20267;-71
2024/04/19 08:23:12;;;;;;;6.30;2.10;;;;;;;;;;5386523;26;20347;-71
2024/04/19 08:25:37;;;;;;;5.43;1.80;;;;;;;;;;5390498;26;20725;-70
2024/04/19 08:28:03;;;;;;;6.40;2.03;;;;;;;;;;5410721;26;20242;-71
2024/04/19 08:30:28;;;;;;;3.57;2.00;;;;;;;;;;5385716;26;20281;-70
2024/04/19 08:32:54;;;;;;;7.43;2.23;;;;;;;;;;5383552;26;20310;-70
2024/04/19 08:35:19;;;;;;;7.27;1.90;;;;;;;;;;5402110;26;20272;-71
2024/04/19 08:37:44;;;;;;;4.47;2.47;;;;;;;;;;5385038;26;21300;-71
2024/04/19 08:40:12;;;;;;;8.57;2.47;;;;;;;;;;5388021;26;20938;-71
2024/04/19 08:42:37;;;;;;;6.97;1.80;;;;;;;;;;5409617;26;20269;-71
2024/04/19 08:45:04;;;;;;;6.07;1.70;;;;;;;;;;5389217;26;20303;-71
2024/04/19 08:47:31;;;;;;;7.20;1.73;;;;;;;;;;5386512;26;20317;-71
2024/04/19 08:49:57;;;;;;;4.53;1.50;;;;;;;;;;5411831;26;20231;-71
2024/04/19 08:52:23;;;;;;;6.63;1.67;;;;;;;;;;5413302;26;20290;-71
2024/04/19 08:54:48;;;;;;;3.33;1.20;;;;;;;;;;5383997;26;20243;-71
2024/04/19 08:57:13;;;;;;;2.23;1.17;;;;;;;;;;5386552;26;20871;-71
2024/04/19 08:59:39;;;;;;;2.93;0.97;;;;;;;;;;5390854;26;20242;-70
2024/04/19 09:02:04;;;;;;;6.40;0.90;;;;;;;;;;5389254;26;20815;-71
2024/04/19 09:04:29;;;;;;;5.30;0.87;;;;;;;;;;5387123;26;20305;-71
2024/04/19 09:06:54;;;;;;;2.50;0.60;;;;;;;;;;5389411;26;21559;-72
2024/04/19 09:09:20;;;;;;;2.27;0.60;;;;;;;;;;5386728;26;20239;-70
2024/04/19 09:11:45;;;;;;;1.03;0.40;;;;;;;;;;5390728;26;20242;-71
2024/04/19 09:14:11;;;;;;;1.90;0.57;;;;;;;;;;5388473;26;20271;-70
2024/04/19 09:16:36;;;;;;;1.90;0.60;;;;;;;;;;5393786;26;20242;-72
2024/04/19 09:19:01;;;;;;;3.50;0.87;;;;;;;;;;5389911;26;20285;-71
2024/04/19 09:21:27;;;;;;;2.10;0.60;;;;;;;;;;5388848;26;20286;-70
2024/04/19 09:26:20;;;;;;;2.40;0.47;;;;;;;;;;5461872;26;20228;-67
2024/04/19 09:28:45;;;;;;;1.03;0.50;;;;;;;;;;5459682;26;22954;-69
2024/04/19 09:31:11;;;;;;;2.40;0.50;;;;;;;;;;5462903;26;20228;-67
2024/04/19 09:33:38;;;;;;;1.48;0.43;;;;;;;;;;5452478;26;20250;-70
2024/04/19 09:36:03;;;;;;;3.50;0.57;;;;;;;;;;5424933;26;20358;-70
2024/04/19 09:38:29;;;;;;;1.98;0.55;;;;;;;;;;5434042;26;20245;-70
2024/04/19 09:40:54;;;;;;;2.00;0.63;;;;;;;;;;5427072;26;20234;-69
2024/04/19 09:43:23;;;;;;;1.50;0.50;;;;;;;;;;5432800;26;20269;-69
2024/04/19 09:45:53;;;;;;;0.75;0.50;;;;;;;;;;5428732;26;20231;-69
2024/04/19 09:48:21;;;;;;;1.13;0.43;;;;;;;;;;5418925;26;20366;-69
2024/04/19 09:50:49;;;;;;;0.88;0.70;;;;;;;;;;5430323;26;20901;-68
2024/04/19 09:53:29;;;;;;;2.42;0.55;;;;;;;;;;5422386;26;22173;-68
2024/04/19 09:56:12;;;;;;;2.00;1.10;;;;;;;;;;5424738;26;20330;-67
2024/04/19 09:58:37;;;;;;;3.10;0.70;;;;;;;;;;5425552;26;20818;-68
2024/04/19 10:01:03;;;;;;;2.03;0.90;;;;;;;;;;5425145;26;20238;-68
2024/04/19 10:03:28;;;;;;;4.60;0.60;;;;;;;;;;5423101;26;20253;-69
2024/04/19 10:05:54;;;;;;;3.05;0.80;;;;;;;;;;5425311;26;21595;-70
2024/04/19 10:08:23;;;;;;;1.50;0.90;;;;;;;;;;5422445;26;21116;-69
2024/04/19 10:10:48;;;;;;;3.83;1.10;;;;;;;;;;5420420;26;20234;-68
2024/04/19 10:13:14;;;;;;;4.78;0.88;;;;;;;;;;5423894;26;20314;-68
2024/04/19 10:15:39;;;;;;;7.07;1.30;;;;;;;;;;5425134;26;20631;-70
2024/04/19 10:18:04;;;;;;;8.75;1.50;;;;;;;;;;5423654;26;20233;-69
2024/04/19 10:20:30;;;;;;;4.07;1.50;;;;;;;;;;5426025;26;20242;-68
2024/04/19 10:22:55;;;;;;;9.30;2.20;;;;;;;;;;5427192;26;20308;-67
2024/04/19 10:25:22;;;;;;;5.78;1.90;;;;;;;;;;5428321;26;20638;-68
2024/04/19 10:27:48;;;;;;;7.90;2.38;;;;;;;;;;5424848;26;20268;-69
2024/04/19 10:30:13;;;;;;;7.88;1.42;;;;;;;;;;5422259;26;20245;-69
2024/04/19 10:32:38;;;;;;;7.75;2.00;;;;;;;;;;5391909;26;20333;-69
2024/04/19 10:35:04;;;;;;;9.77;2.30;;;;;;;;;;5422959;26;20233;-70
2024/04/19 10:37:29;;;;;;;6.95;1.92;;;;;;;;;;5422945;26;20393;-70
2024/04/19 10:39:54;;;;;;;11.43;1.80;;;;;;;;;;5422428;26;20322;-69
2024/04/19 10:42:20;;;;;;;7.60;1.40;;;;;;;;;;5393988;26;20852;-68
2024/04/19 10:44:48;;;;;;;5.00;1.10;;;;;;;;;;5429959;26;20748;-68
2024/04/19 10:47:13;;;;;;;3.53;1.48;;;;;;;;;;5425460;26;20315;-69
2024/04/19 10:49:38;;;;;;;5.25;1.20;;;;;;;;;;5421631;26;20647;-69
2024/04/19 10:52:04;;;;;;;5.55;1.35;;;;;;;;;;5423156;26;20245;-69
2024/04/19 10:54:30;;;;;;;8.57;1.73;;;;;;;;;;5423247;26;20246;-69
2024/04/19 10:56:55;;;;;;;7.93;1.33;;;;;;;;;;5423014;26;20250;-70
2024/04/19 10:59:20;;;;;;;8.63;1.63;;;;;;;;;;5421323;26;20280;-68
2024/04/19 11:01:46;;;;;;;6.18;1.63;;;;;;;;;;5425814;26;20234;-68
2024/04/19 11:04:11;;;;;;;6.75;1.30;;;;;;;;;;5421519;26;20913;-69
2024/04/19 11:06:37;;;;;;;11.00;1.58;;;;;;;;;;5422597;26;20250;-70
2024/04/19 11:09:03;;;;;;;5.93;1.50;;;;;;;;;;5424412;26;20274;-70
2024/04/19 11:11:36;;;;;;;5.93;2.05;;;;;;;;;;5425571;26;20285;-69
2024/04/19 11:14:01;;;;;;;3.05;1.20;;;;;;;;;;5399611;26;20598;-69
2024/04/19 11:16:27;;;;;;;8.27;1.83;;;;;;;;;;5422636;26;20325;-70
2024/04/19 11:18:52;;;;;;;3.85;1.38;;;;;;;;;;5397163;26;20238;-68
2024/04/19 11:21:17;;;;;;;4.43;1.50;;;;;;;;;;5421321;26;20242;-69
2024/04/19 11:23:42;;;;;;;8.30;1.20;;;;;;;;;;5430644;26;20604;-69
2024/04/19 11:26:07;;;;;;;5.33;1.33;;;;;;;;;;5421482;26;20341;-69
2024/04/19 11:28:33;;;;;;;3.07;1.23;;;;;;;;;;5422555;26;20249;-70
2024/04/19 11:30:59;;;;;;;8.53;1.17;;;;;;;;;;5421233;26;20238;-69
2024/04/19 11:33:24;;;;;;;6.40;1.10;;;;;;;;;;5421960;26;20611;-70
2024/04/19 11:35:51;;;;;;;2.40;0.80;;;;;;;;;;5420721;26;20688;-69
2024/04/19 11:38:17;;;;;;;3.17;0.93;;;;;;;;;;5390154;26;21251;-69
2024/04/19 11:40:43;;;;;;;6.40;1.10;;;;;;;;;;5421861;26;20285;-69
2024/04/19 11:43:08;;;;;;;10.83;1.87;;;;;;;;;;5394283;26;20756;-69
2024/04/19 11:45:34;;;;;;;6.47;1.03;;;;;;;;;;5430420;26;20234;-70
2024/04/19 11:48:00;;;;;;;8.02;1.20;;;;;;;;;;5387183;26;20827;-69
2024/04/19 11:50:25;;;;;;;5.22;0.60;;;;;;;;;;5399033;26;20281;-69
2024/04/19 11:52:51;;;;;;;8.05;1.10;;;;;;;;;;5393696;26;20237;-68
2024/04/19 11:55:17;;;;;;;3.08;0.90;;;;;;;;;;5426157;26;20249;-68
2024/04/19 11:57:43;;;;;;;7.60;0.80;;;;;;;;;;5425404;26;20294;-69
2024/04/19 12:00:09;;;;;;;3.10;0.68;;;;;;;;;;5423749;26;20285;-69
2024/04/19 12:02:34;;;;;;;2.10;0.47;;;;;;;;;;5422342;26;20272;-68
2024/04/19 12:04:59;;;;;;;5.13;0.88;;;;;;;;;;5421111;26;20248;-70
2024/04/19 12:07:24;;;;;;;3.35;0.88;;;;;;;;;;5421519;26;20583;-68
2024/04/19 12:09:50;;;;;;;1.60;0.52;;;;;;;;;;5420727;26;20280;-69
2024/04/19 12:12:19;;;;;;;7.57;1.33;;;;;;;;;;5389635;26;20269;-68
2024/04/19 12:14:44;;;;;;;3.70;1.45;;;;;;;;;;5418792;26;21345;-70
2024/04/19 12:17:10;;;;;;;2.67;1.00;;;;;;;;;;5392473;26;20237;-69
2024/04/19 12:19:38;;;;;;;4.70;1.05;;;;;;;;;;5420562;26;20275;-69
2024/04/19 12:22:03;;;;;;;4.82;0.68;;;;;;;;;;5427815;26;20349;-69
2024/04/19 12:24:29;;;;;;;2.88;0.95;;;;;;;;;;5422948;26;20653;-69
2024/04/19 12:26:54;;;;;;;4.90;0.73;;;;;;;;;;5423540;26;20280;-69
2024/04/19 12:29:19;;;;;;;2.63;0.63;;;;;;;;;;5421218;26;21022;-69
2024/04/19 12:31:45;;;;;;;3.05;0.80;;;;;;;;;;5389377;26;20265;-69
2024/04/19 12:34:10;;;;;;;3.75;0.90;;;;;;;;;;5423204;26;20230;-69
2024/04/19 12:36:35;;;;;;;7.22;1.73;;;;;;;;;;5422912;26;20240;-69
2024/04/19 12:39:00;;;;;;;3.80;1.02;;;;;;;;;;5421246;26;20310;-68
2024/04/19 12:41:29;;;;;;;4.57;1.23;;;;;;;;;;5422799;26;20242;-68
2024/04/19 12:43:55;;;;;;;3.85;0.98;;;;;;;;;;5425498;26;20245;-68
2024/04/19 12:46:21;;;;;;;3.35;1.05;;;;;;;;;;5388101;26;20235;-71
2024/04/19 12:48:47;;;;;;;6.25;1.20;;;;;;;;;;5393314;26;20230;-69
2024/04/19 12:51:12;;;;;;;5.53;1.13;;;;;;;;;;5388451;26;20353;-67
2024/04/19 12:53:38;;;;;;;4.47;1.40;;;;;;;;;;5423004;26;20312;-68
2024/04/19 12:56:05;;;;;;;6.07;2.03;;;;;;;;;;5415640;26;20238;-69
2024/04/19 12:58:30;;;;;;;5.63;1.20;;;;;;;;;;5386753;26;20620;-69
2024/04/19 13:01:01;;;;;;;9.93;1.47;;;;;;;;;;5422730;26;20284;-68
2024/04/19 13:03:26;;;;;;;3.87;0.93;;;;;;;;;;5427271;26;20299;-69
2024/04/19 13:05:51;;;;;;;5.75;1.60;;;;;;;;;;5422436;26;20238;-69
2024/04/19 13:08:16;;;;;;;7.65;0.90;;;;;;;;;;5422492;26;20284;-69
2024/04/19 13:10:42;;;;;;;3.58;1.30;;;;;;;;;;5421968;26;20245;-69
2024/04/19 13:13:12;;;;;;;6.10;1.73;;;;;;;;;;5387639;26;20325;-69
2024/04/19 13:15:37;;;;;;;6.72;2.33;;;;;;;;;;5420706;26;20229;-69
2024/04/19 13:18:02;;;;;;;3.72;1.05;;;;;;;;;;5424273;26;20858;-69
2024/04/19 13:20:28;;;;;;;5.00;1.02;;;;;;;;;;5421835;26;20246;-68
2024/04/19 13:22:53;;;;;;;8.88;1.60;;;;;;;;;;5421248;26;20242;-69
2024/04/19 13:25:18;;;;;;;10.18;1.55;;;;;;;;;;5423449;26;20241;-68
2024/04/19 13:27:43;;;;;;;9.90;1.75;;;;;;;;;;5419576;26;20253;-68
2024/04/19 13:30:09;;;;;;;8.32;1.83;;;;;;;;;;5419503;26;20500;-67
2024/04/19 13:32:34;;;;;;;9.65;1.75;;;;;;;;;;5421766;26;20954;-67
2024/04/19 13:35:00;;;;;;;4.93;1.30;;;;;;;;;;5386451;26;20246;-69
2024/04/19 13:37:26;;;;;;;5.85;2.13;;;;;;;;;;5424349;26;20235;-67
2024/04/19 13:39:51;;;;;;;10.38;1.98;;;;;;;;;;5419608;26;20280;-69
2024/04/19 13:42:16;;;;;;;8.95;1.77;;;;;;;;;;5423054;26;20226;-68
2024/04/19 13:44:41;;;;;;;10.38;3.03;;;;;;;;;;5418031;26;20279;-67
2024/04/19 13:47:11;;;;;;;15.30;2.97;;;;;;;;;;5423124;26;20253;-68
2024/04/19 13:49:37;;;;;;;5.40;1.75;;;;;;;;;;5429654;26;20253;-66
2024/04/19 13:52:02;;;;;;;8.63;2.42;;;;;;;;;;5392482;26;20821;-67
2024/04/19 13:54:27;;;;;;;15.32;3.20;;;;;;;;;;5422067;26;20245;-67
2024/04/19 13:56:53;;;;;;;12.55;2.65;;;;;;;;;;5390012;26;20277;-68
2024/04/19 13:59:20;;;;;;;9.73;2.03;;;;;;;;;;5422840;26;20363;-68
2024/04/19 14:01:46;;;;;;;4.85;1.40;;;;;;;;;;5428641;26;21532;-69
2024/04/19 14:04:11;;;;;;;11.43;1.90;;;;;;;;;;5423256;26;20666;-68
2024/04/19 14:06:36;;;;;;;11.37;1.63;;;;;;;;;;5423183;26;20226;-69
2024/04/19 14:09:05;;;;;;;7.93;2.63;;;;;;;;;;5423892;26;20241;-68
2024/04/19 14:11:31;;;;;;;7.47;1.63;;;;;;;;;;5431457;26;20230;-67
2024/04/19 14:13:56;;;;;;;7.25;1.95;;;;;;;;;;5393216;26;20241;-68
2024/04/19 14:16:23;;;;;;;8.43;2.13;;;;;;;;;;5425865;26;20744;-68
2024/04/19 14:18:48;;;;;;;14.20;2.47;;;;;;;;;;5395400;26;20354;-68
2024/04/19 14:21:13;;;;;;;9.25;2.20;;;;;;;;;;5390474;26;20261;-67
2024/04/19 14:23:40;;;;;;;6.55;1.77;;;;;;;;;;5429250;26;20242;-66
2024/04/19 14:26:06;;;;;;;7.53;1.70;;;;;;;;;;5423134;26;20241;-68
2024/04/19 14:28:32;;;;;;;8.73;1.50;;;;;;;;;;5425547;26;20285;-69
2024/04/19 14:30:58;;;;;;;10.00;2.03;;;;;;;;;;5423346;26;20993;-68
2024/04/19 14:33:23;;;;;;;13.13;1.63;;;;;;;;;;5422680;26;20242;-67
2024/04/19 14:35:48;;;;;;;7.82;1.98;;;;;;;;;;5421469;26;20281;-69
2024/04/19 14:38:13;;;;;;;13.48;2.67;;;;;;;;;;5395587;26;20627;-69